createdAt,value
2017-07-03T06:13:48.572Z,1.40
2017-07-03T06:16:17.206Z,1.33
2017-07-03T06:18:45.750Z,1.30
2017-07-03T06:21:14.268Z,1.47
2017-07-03T06:23:42.695Z,1.43
2017-07-03T06:26:11.185Z,1.40
2017-07-03T06:28:39.609Z,1.73
2017-07-03T06:31:08.038Z,1.30
2017-07-03T06:33:36.515Z,1.30
2017-07-03T06:36:05.154Z,1.50
2017-07-03T06:38:33.801Z,1.60
2017-07-03T06:41:02.991Z,1.40
2017-07-03T06:43:31.420Z,1.30
2017-07-03T06:45:59.902Z,1.20
2017-07-03T06:48:28.346Z,1.90
2017-07-03T06:50:56.786Z,1.70
2017-07-03T06:53:25.352Z,1.53
2017-07-03T06:55:54.152Z,1.50
2017-07-03T06:58:22.661Z,2.50
2017-07-03T07:00:51.868Z,2.50
2017-07-03T07:03:20.341Z,2.70
2017-07-03T07:05:49.695Z,3.13
2017-07-03T07:08:18.376Z,3.53
2017-07-03T07:10:46.860Z,3.30
2017-07-03T07:13:15.445Z,3.67
2017-07-03T07:15:43.874Z,3.20
2017-07-03T07:18:12.507Z,3.10
2017-07-03T07:20:40.984Z,3.27
2017-07-03T07:23:09.421Z,3.37
2017-07-03T07:25:37.953Z,3.27
2017-07-03T07:28:06.389Z,2.80
2017-07-03T07:30:34.875Z,3.10
2017-07-03T07:33:03.703Z,3.37
2017-07-03T07:35:32.133Z,3.50
2017-07-03T07:38:00.557Z,3.27
2017-07-03T07:40:29.145Z,3.17
2017-07-03T07:42:57.592Z,3.53
2017-07-03T07:45:26.206Z,3.30
2017-07-03T07:47:54.627Z,3.80
2017-07-03T07:50:23.072Z,3.87
2017-07-03T07:52:51.543Z,3.60
2017-07-03T07:55:20.030Z,3.77
2017-07-03T07:57:49.188Z,3.30
2017-07-03T08:00:17.708Z,3.40
2017-07-03T08:02:46.700Z,4.07
2017-07-03T08:05:15.127Z,4.10
2017-07-03T08:07:43.640Z,3.40
2017-07-03T08:10:12.425Z,3.67
2017-07-03T08:12:41.011Z,3.70
2017-07-03T08:15:09.440Z,3.47
2017-07-03T08:17:37.916Z,3.20
2017-07-03T08:20:06.348Z,3.53
2017-07-03T08:22:34.780Z,3.30
2017-07-03T08:25:03.312Z,3.47
2017-07-03T08:27:31.744Z,3.30
2017-07-03T08:30:00.271Z,2.90
2017-07-03T08:32:28.959Z,4.00
2017-07-03T08:34:57.408Z,4.07
2017-07-03T08:37:25.838Z,4.13
2017-07-03T08:39:55.080Z,3.83
2017-07-03T08:42:23.508Z,4.00
2017-07-03T08:44:51.931Z,3.57
2017-07-03T08:47:20.481Z,3.20
2017-07-03T08:49:48.907Z,3.80
2017-07-03T08:52:17.421Z,3.30
2017-07-03T08:54:45.852Z,2.93
2017-07-03T08:57:14.273Z,2.67
2017-07-03T08:59:42.842Z,2.90
2017-07-03T09:02:11.280Z,2.60
2017-07-03T09:04:39.704Z,2.70
2017-07-03T09:07:08.311Z,3.10
2017-07-03T09:09:37.710Z,2.57
2017-07-03T09:12:06.426Z,2.97
2017-07-03T09:14:34.905Z,3.20
2017-07-03T09:17:03.338Z,2.30
2017-07-03T09:19:31.755Z,3.17
2017-07-03T09:22:01.032Z,3.40
2017-07-03T09:24:29.551Z,2.87
2017-07-03T09:26:57.975Z,3.03
2017-07-03T09:29:26.862Z,2.87
2017-07-03T09:31:56.186Z,3.37
2017-07-03T09:34:24.615Z,2.70
2017-07-03T09:36:53.923Z,2.67
2017-07-03T09:39:22.521Z,2.17
2017-07-03T09:41:51.090Z,2.63
2017-07-03T09:44:19.755Z,2.30
2017-07-03T09:46:49.086Z,2.53
2017-07-03T09:49:17.594Z,2.70
2017-07-03T09:51:46.026Z,2.40
2017-07-03T09:54:14.683Z,2.70
2017-07-03T09:56:43.157Z,2.30
2017-07-03T09:59:12.360Z,2.70
2017-07-03T10:01:40.878Z,2.47
2017-07-03T10:04:09.307Z,1.83
2017-07-03T10:06:37.747Z,2.37
2017-07-03T10:09:06.214Z,2.40
2017-07-03T10:11:34.642Z,2.00
2017-07-03T10:14:03.093Z,2.30
2017-07-03T10:16:31.885Z,2.30
2017-07-03T10:19:00.330Z,1.83
2017-07-03T10:21:28.763Z,2.60
2017-07-03T10:23:57.454Z,2.30
2017-07-03T10:26:25.946Z,2.07
2017-07-03T10:28:54.542Z,2.20
2017-07-03T10:31:23.788Z,1.83
2017-07-03T10:33:52.217Z,2.40
2017-07-03T10:36:20.648Z,2.20
2017-07-03T10:38:49.138Z,2.07
2017-07-03T10:41:17.578Z,2.20
2017-07-03T10:43:46.230Z,2.40
2017-07-03T10:46:14.719Z,2.00
2017-07-03T10:48:43.249Z,2.20
2017-07-03T10:51:11.798Z,1.97
2017-07-03T10:53:40.277Z,2.03
2017-07-03T10:56:08.698Z,2.23
2017-07-03T10:58:37.388Z,2.03
2017-07-03T11:01:05.883Z,2.10
2017-07-03T11:03:34.317Z,1.43
2017-07-03T11:06:02.946Z,1.90
2017-07-03T11:08:31.400Z,2.20
2017-07-03T11:11:00.029Z,1.87
2017-07-03T11:13:28.459Z,1.70
2017-07-03T11:15:57.141Z,2.23
2017-07-03T11:18:25.650Z,2.17
2017-07-03T11:20:54.122Z,2.30
2017-07-03T11:23:22.572Z,1.90
2017-07-03T11:25:51.060Z,1.43
2017-07-03T11:28:19.482Z,1.80
2017-07-03T11:30:48.873Z,1.70
2017-07-03T11:33:17.330Z,1.77
2017-07-03T11:35:45.944Z,2.10
2017-07-03T11:38:14.450Z,1.63
2017-07-03T11:40:42.875Z,2.10
2017-07-03T11:43:11.307Z,1.90
2017-07-03T11:45:39.791Z,1.80
2017-07-03T11:48:08.546Z,2.03
2017-07-03T11:50:36.963Z,1.87
2017-07-03T11:53:05.719Z,1.97
2017-07-03T11:55:34.796Z,2.00
2017-07-03T11:58:03.268Z,1.50
2017-07-03T12:00:32.462Z,2.13
2017-07-03T12:03:01.062Z,2.03
2017-07-03T12:05:29.501Z,1.83
2017-07-03T12:07:57.973Z,1.80
2017-07-03T12:10:26.575Z,1.97
2017-07-03T12:12:55.017Z,2.07
2017-07-03T12:15:23.445Z,1.80
2017-07-03T12:17:52.086Z,1.80
2017-07-03T12:20:20.516Z,1.53
2017-07-03T12:22:48.975Z,1.60
2017-07-03T12:25:17.521Z,1.97
2017-07-03T12:27:45.990Z,2.10
2017-07-03T12:30:14.565Z,1.83
2017-07-03T12:32:43.191Z,1.77
2017-07-03T12:35:11.632Z,1.93
2017-07-03T12:37:40.597Z,1.50
2017-07-03T12:40:09.943Z,1.50
2017-07-03T12:42:38.936Z,1.60
2017-07-03T12:45:08.148Z,1.40
2017-07-03T12:47:36.582Z,1.90
2017-07-03T12:50:05.098Z,1.80
2017-07-03T12:52:33.589Z,1.80
2017-07-03T12:55:02.159Z,1.57
2017-07-03T12:57:30.638Z,1.67
2017-07-03T12:59:59.055Z,1.90
2017-07-03T13:02:27.492Z,1.93
2017-07-03T13:04:55.982Z,1.80
2017-07-03T13:07:24.474Z,1.80
2017-07-03T13:09:53.092Z,1.97
2017-07-03T13:12:21.846Z,1.90
2017-07-03T13:14:50.367Z,2.03
2017-07-03T13:17:18.909Z,1.70
2017-07-03T13:19:47.629Z,2.27
2017-07-03T13:22:16.050Z,2.00
2017-07-03T13:24:44.661Z,2.00
2017-07-03T13:27:13.222Z,1.77
2017-07-03T13:29:41.726Z,2.20
2017-07-03T13:32:10.227Z,1.90
2017-07-03T13:34:38.685Z,1.80
2017-07-03T13:37:07.143Z,1.80
2017-07-03T13:39:35.736Z,1.60
2017-07-03T13:42:04.179Z,1.40
2017-07-03T13:44:32.920Z,1.70
2017-07-03T13:47:01.522Z,1.63
2017-07-03T13:49:30.837Z,2.03
2017-07-03T13:51:59.308Z,1.93
2017-07-03T13:54:27.954Z,1.80
2017-07-03T13:56:56.384Z,1.90
2017-07-03T13:59:24.929Z,2.20
2017-07-03T14:01:54.703Z,1.80
2017-07-03T14:04:23.221Z,1.77
2017-07-03T14:06:51.893Z,1.97
2017-07-03T14:09:20.903Z,1.80
2017-07-03T14:11:49.327Z,1.80
2017-07-03T14:14:18.427Z,1.33
2017-07-03T14:16:48.315Z,1.80
2017-07-03T14:19:16.757Z,2.00
2017-07-03T14:21:45.252Z,1.67
2017-07-03T14:24:13.683Z,1.70
2017-07-03T14:26:42.114Z,1.30
2017-07-03T14:29:10.697Z,1.40
2017-07-03T14:31:39.153Z,1.70
2017-07-03T14:34:07.589Z,1.70
2017-07-03T14:36:36.360Z,1.43
2017-07-03T14:39:04.121Z,1.37
2017-07-03T14:41:32.589Z,1.40
2017-07-03T14:44:01.072Z,1.37
2017-07-03T14:46:29.858Z,1.60
2017-07-03T14:48:58.295Z,1.90
2017-07-03T14:51:26.853Z,1.40
2017-07-03T14:53:55.320Z,1.73
2017-07-03T14:56:23.751Z,1.90
2017-07-03T14:58:52.366Z,1.73
2017-07-03T15:01:20.832Z,1.50
2017-07-03T15:03:49.429Z,1.73
2017-07-03T15:06:18.120Z,1.67
2017-07-03T15:08:46.667Z,1.50
2017-07-03T15:11:15.178Z,1.80
2017-07-03T15:13:43.628Z,1.57
2017-07-03T15:16:12.097Z,1.50
2017-07-03T15:18:40.629Z,1.40
2017-07-03T15:21:09.124Z,1.40
2017-07-03T15:23:37.686Z,1.60
2017-07-03T15:26:06.203Z,1.37
2017-07-03T15:28:34.630Z,1.37
2017-07-03T15:31:03.140Z,1.60
2017-07-03T15:33:31.603Z,1.40
2017-07-03T15:36:00.019Z,1.50
2017-07-03T15:38:28.575Z,1.27
2017-07-03T15:40:56.996Z,1.40
2017-07-03T15:43:25.474Z,1.30
2017-07-03T15:45:53.892Z,1.80
2017-07-03T15:48:22.329Z,1.37
2017-07-03T15:50:50.803Z,1.30
2017-07-03T15:53:19.239Z,1.30
2017-07-03T15:55:47.675Z,1.47
2017-07-03T15:58:16.169Z,1.27
2017-07-03T16:00:44.608Z,1.40
2017-07-03T16:03:13.179Z,1.73
2017-07-03T16:05:41.856Z,1.57
2017-07-03T16:08:10.297Z,1.50
2017-07-03T16:10:38.723Z,1.27
2017-07-03T16:13:07.190Z,1.30
2017-07-03T16:15:35.620Z,1.20
2017-07-03T16:18:04.037Z,1.17
2017-07-03T16:20:32.569Z,1.30
2017-07-03T16:23:01.081Z,1.33
2017-07-03T16:25:29.733Z,1.47
2017-07-03T16:27:58.349Z,1.30
2017-07-03T16:30:26.768Z,1.30
2017-07-03T16:32:55.194Z,1.10
2017-07-03T16:35:23.689Z,1.53
2017-07-03T16:37:52.136Z,1.50
2017-07-03T16:40:20.617Z,1.53
2017-07-03T16:42:49.158Z,1.20
2017-07-03T16:45:17.869Z,1.20
2017-07-03T16:47:47.093Z,1.27
2017-07-03T16:50:15.508Z,1.20
2017-07-03T16:52:44.382Z,1.13
2017-07-03T16:55:12.837Z,1.10
2017-07-03T16:57:41.263Z,1.20
2017-07-03T17:00:09.742Z,1.20
2017-07-03T17:02:38.173Z,1.30
2017-07-03T17:05:06.606Z,1.30
2017-07-03T17:07:35.197Z,1.23
2017-07-03T17:10:03.886Z,1.40
2017-07-03T17:12:32.571Z,1.77
2017-07-03T17:15:01.465Z,1.33
2017-07-03T17:17:29.919Z,1.50
2017-07-03T17:19:58.634Z,1.67
2017-07-03T17:22:27.182Z,1.40
2017-07-03T17:24:55.798Z,1.03
2017-07-03T17:27:24.380Z,1.33
2017-07-03T17:29:52.862Z,1.40
2017-07-03T17:32:21.301Z,1.50
2017-07-03T17:34:49.884Z,1.70
2017-07-03T17:37:18.480Z,1.60
2017-07-03T17:39:47.001Z,1.40
2017-07-03T17:42:15.604Z,1.60
2017-07-03T17:44:44.994Z,1.30
2017-07-03T17:47:14.453Z,1.53
2017-07-03T17:49:43.722Z,1.50
2017-07-03T17:52:12.291Z,1.60
2017-07-03T17:54:40.772Z,1.47
2017-07-03T17:57:09.197Z,1.60
2017-07-03T17:59:37.609Z,1.40
2017-07-03T18:02:06.072Z,1.50
2017-07-03T18:04:34.607Z,1.37
2017-07-03T18:07:03.026Z,1.43
2017-07-03T18:09:31.559Z,1.47
2017-07-03T18:12:00.108Z,1.40
2017-07-03T18:14:28.631Z,1.30
2017-07-03T18:16:57.922Z,1.20
2017-07-03T18:19:26.422Z,1.77
2017-07-03T18:21:54.843Z,1.30
2017-07-03T18:24:23.347Z,1.27
2017-07-03T18:26:52.664Z,1.23
2017-07-03T18:29:21.230Z,1.37
2017-07-03T18:31:49.587Z,1.80
2017-07-03T18:34:18.001Z,1.67
2017-07-03T18:36:46.486Z,1.30
2017-07-03T18:39:15.626Z,1.70
2017-07-03T18:41:44.043Z,1.50
2017-07-03T18:44:12.547Z,1.60
2017-07-03T18:46:41.088Z,1.70
2017-07-03T18:49:09.608Z,1.33
2017-07-03T18:51:38.033Z,1.40
2017-07-03T18:54:06.483Z,1.37
2017-07-03T18:56:35.049Z,1.30
2017-07-03T18:59:03.701Z,1.60
2017-07-03T19:01:33.276Z,1.70
2017-07-03T19:04:01.035Z,1.70
2017-07-03T19:06:29.780Z,1.83
2017-07-03T19:08:58.487Z,1.60
2017-07-03T19:11:26.932Z,1.33
2017-07-03T19:13:55.443Z,1.50
2017-07-03T19:16:23.928Z,2.13
2017-07-03T19:18:52.362Z,1.87
2017-07-03T19:21:20.846Z,2.30
2017-07-03T19:23:49.274Z,1.93
2017-07-03T19:26:17.765Z,1.60
2017-07-03T19:28:46.431Z,2.00
2017-07-03T19:31:15.074Z,2.40
2017-07-03T19:33:43.761Z,2.10
2017-07-03T19:36:12.432Z,2.43
2017-07-03T19:38:41.041Z,2.23
2017-07-03T19:41:09.474Z,2.57
2017-07-03T19:43:38.811Z,2.03
2017-07-03T19:46:07.505Z,2.40
2017-07-03T19:48:35.945Z,2.00
2017-07-03T19:51:04.426Z,2.10
2017-07-03T19:53:32.857Z,2.20
2017-07-03T19:56:01.318Z,1.90
2017-07-03T19:58:30.003Z,1.90
2017-07-03T20:00:58.689Z,2.13
2017-07-03T20:03:26.809Z,2.03
2017-07-03T20:05:55.287Z,2.17
2017-07-03T20:08:23.716Z,1.70
2017-07-03T20:10:52.363Z,1.60
2017-07-03T20:13:20.889Z,2.17
2017-07-03T20:15:49.474Z,2.40
2017-07-03T20:18:17.960Z,2.00
2017-07-03T20:20:46.188Z,1.90
2017-07-03T20:23:14.636Z,1.83
2017-07-03T20:25:43.104Z,2.20
2017-07-03T20:28:11.572Z,1.70
2017-07-03T20:30:40.155Z,1.93
2017-07-03T20:33:08.594Z,2.00
2017-07-03T20:35:37.221Z,1.90
2017-07-03T20:38:05.651Z,2.00
2017-07-03T20:40:34.093Z,2.00
2017-07-03T20:43:02.661Z,1.93
2017-07-03T20:45:31.248Z,1.70
2017-07-03T20:47:59.689Z,2.20
2017-07-03T20:50:28.937Z,1.83
2017-07-03T20:52:57.365Z,2.07
2017-07-03T20:55:26.628Z,3.23
2017-07-03T20:57:55.215Z,2.23
2017-07-03T21:00:23.772Z,2.17
2017-07-03T21:02:52.243Z,2.47
2017-07-03T21:05:20.836Z,2.77
2017-07-03T21:07:50.136Z,2.93
2017-07-03T21:10:18.556Z,2.10
2017-07-03T21:12:47.058Z,2.10
2017-07-03T21:15:15.272Z,3.07
2017-07-03T21:17:43.958Z,2.13
2017-07-03T21:20:12.641Z,2.30
2017-07-03T21:22:40.413Z,2.47
2017-07-03T21:25:09.094Z,2.50
2017-07-03T21:27:37.520Z,2.27
2017-07-03T21:30:06.006Z,1.90
2017-07-03T21:32:34.445Z,2.30
2017-07-03T21:35:03.219Z,2.40
2017-07-03T21:37:31.649Z,2.37
2017-07-03T21:40:00.241Z,2.40
2017-07-03T21:42:29.505Z,2.10
2017-07-03T21:44:57.963Z,2.23
2017-07-03T21:47:26.634Z,2.40
2017-07-03T21:49:55.309Z,2.60
2017-07-03T21:52:23.744Z,2.40
2017-07-03T21:54:52.235Z,2.43
2017-07-03T21:57:20.779Z,2.37
2017-07-03T21:59:49.282Z,2.30
2017-07-03T22:02:17.748Z,2.23
2017-07-03T22:04:46.224Z,2.57
2017-07-03T22:07:14.909Z,2.60
2017-07-03T22:09:43.402Z,2.40
2017-07-03T22:12:11.670Z,2.10
2017-07-03T22:14:41.274Z,2.53
2017-07-03T22:17:09.981Z,2.50
2017-07-03T22:19:38.644Z,2.47
2017-07-03T22:22:07.494Z,2.17
2017-07-03T22:24:35.954Z,2.53
2017-07-03T22:27:04.474Z,2.43
2017-07-03T22:29:34.224Z,2.27
2017-07-03T22:32:01.967Z,2.17
2017-07-03T22:34:30.760Z,2.50
2017-07-03T22:36:59.193Z,2.57
2017-07-03T22:39:27.826Z,2.07
2017-07-03T22:41:56.306Z,2.33
2017-07-03T22:44:24.888Z,2.00
2017-07-03T22:46:53.314Z,2.20
2017-07-03T22:49:21.949Z,2.30
2017-07-03T22:51:50.636Z,2.50
2017-07-03T22:54:19.629Z,2.30
2017-07-03T22:56:48.107Z,2.20
2017-07-03T22:59:16.539Z,1.63
2017-07-03T23:01:45.072Z,1.80
2017-07-03T23:04:13.253Z,2.07
2017-07-03T23:06:41.692Z,2.03
2017-07-03T23:09:10.209Z,2.20
2017-07-03T23:11:38.893Z,2.17
2017-07-03T23:14:07.322Z,2.00
2017-07-03T23:16:35.959Z,2.13
2017-07-03T23:19:04.412Z,2.10
2017-07-03T23:21:32.900Z,2.10
2017-07-03T23:24:01.323Z,2.17
2017-07-03T23:26:29.748Z,1.90
2017-07-03T23:28:58.212Z,1.90
2017-07-03T23:31:26.844Z,1.67
2017-07-03T23:33:55.532Z,1.97
2017-07-03T23:36:23.960Z,1.67
2017-07-03T23:38:52.593Z,1.80
2017-07-03T23:41:20.717Z,1.50
2017-07-03T23:43:49.170Z,1.40
2017-07-03T23:46:17.637Z,2.00
2017-07-03T23:48:45.495Z,2.20
2017-07-03T23:51:14.048Z,1.60
2017-07-03T23:53:42.506Z,1.70
2017-07-03T23:56:10.924Z,1.50
2017-07-03T23:58:39.345Z,1.63
